Terminal Aerodrome Forecast
Issued by NWS

Home | Current Version | Previous Version | Graphics & Text | Print | Product List | Glossary On
Versions: 1 2 3 4 5 6 7 8 9 10 11 12 13 14 15 16 17 18 19
000
FTUS43 KICT 202339
TAFRSL
TAF
KRSL 202339Z 2100/2124 01011KT P6SM SCT027 BKN035
      TEMPO 2103/2106 BKN027
     FM210600 VRB03KT 5SM BR SCT035
     FM211400 09006KT P6SM SCT050=

USA.gov is the U.S. government's official web portal to all federal, state and local government web resources and services.